createdAt,value
2022-07-26T00:01:24.074Z,26.99
2022-07-26T00:04:00.946Z,26.67
2022-07-26T00:06:29.773Z,26.53
2022-07-26T00:08:59.373Z,26.97
2022-07-26T00:11:28.985Z,26.97
2022-07-26T00:13:57.228Z,26.94
2022-07-26T00:16:25.615Z,27.05
2022-07-26T00:18:53.898Z,27.00
2022-07-26T00:21:22.605Z,26.51
2022-07-26T00:23:51.336Z,26.63
2022-07-26T00:26:21.316Z,26.86
2022-07-26T00:28:49.858Z,26.76
2022-07-26T00:31:18.157Z,26.54
2022-07-26T00:33:46.685Z,26.30
2022-07-26T00:36:15.030Z,26.33
2022-07-26T00:38:43.217Z,26.02
2022-07-26T00:41:12.083Z,25.86
2022-07-26T00:43:56.337Z,25.32
2022-07-26T00:46:24.725Z,25.07
2022-07-26T00:48:53.114Z,24.89
2022-07-26T00:51:22.147Z,24.66
2022-07-26T00:53:51.656Z,24.62
2022-07-26T00:56:20.255Z,24.45
2022-07-26T00:58:50.010Z,24.54
2022-07-26T01:01:18.290Z,24.61
2022-07-26T01:03:46.735Z,24.66
2022-07-26T01:06:15.017Z,24.84
2022-07-26T01:08:43.327Z,24.93
2022-07-26T01:11:11.682Z,24.99
2022-07-26T01:13:47.585Z,24.90
2022-07-26T01:16:18.018Z,24.87
2022-07-26T01:18:46.644Z,24.85
2022-07-26T01:21:15.648Z,24.72
2022-07-26T01:23:45.760Z,24.71
2022-07-26T01:26:14.029Z,22.91
2022-07-26T01:28:42.924Z,24.44
2022-07-26T01:31:11.540Z,24.63
2022-07-26T01:33:39.971Z,24.60
2022-07-26T01:36:08.854Z,24.58
2022-07-26T01:38:37.209Z,24.55
2022-07-26T01:41:07.108Z,24.50
2022-07-26T01:43:35.539Z,24.26
2022-07-26T01:46:04.734Z,24.22
2022-07-26T01:48:33.325Z,24.12
2022-07-26T01:51:02.553Z,24.33
2022-07-26T01:53:30.896Z,24.32
2022-07-26T01:55:59.476Z,24.30
2022-07-26T01:58:29.127Z,24.48
2022-07-26T02:00:57.453Z,24.59
2022-07-26T02:03:25.753Z,24.65
2022-07-26T02:05:53.988Z,24.75
2022-07-26T02:08:22.467Z,24.90
2022-07-26T02:11:02.577Z,24.78
2022-07-26T02:13:35.816Z,24.49
2022-07-26T02:16:05.510Z,24.95
2022-07-26T02:18:34.235Z,25.17
2022-07-26T02:21:03.590Z,25.14
2022-07-26T02:23:32.281Z,25.18
2022-07-26T02:26:01.832Z,24.57
2022-07-26T02:28:30.273Z,25.18
2022-07-26T02:30:59.952Z,25.26
2022-07-26T02:33:28.297Z,24.47
2022-07-26T02:35:56.889Z,25.18
2022-07-26T02:38:25.335Z,24.64
2022-07-26T02:40:53.821Z,25.21
2022-07-26T02:43:22.118Z,25.18
2022-07-26T02:46:01.026Z,25.20
2022-07-26T02:48:32.924Z,25.07
2022-07-26T02:51:01.422Z,25.08
2022-07-26T02:53:29.728Z,25.06
2022-07-26T02:55:57.944Z,25.14
2022-07-26T02:58:27.124Z,25.12
2022-07-26T03:00:55.750Z,25.14
2022-07-26T03:03:24.134Z,25.11
2022-07-26T03:05:53.832Z,24.95
2022-07-26T03:08:22.852Z,24.99
2022-07-26T03:10:51.255Z,25.02
2022-07-26T03:13:19.572Z,24.99
2022-07-26T03:15:48.369Z,24.86
2022-07-26T03:18:16.605Z,24.83
2022-07-26T03:20:45.031Z,24.79
2022-07-26T03:23:14.906Z,24.60
2022-07-26T03:25:43.282Z,24.65
2022-07-26T03:28:16.010Z,24.68
2022-07-26T03:30:47.345Z,24.71
2022-07-26T03:33:15.635Z,24.36
2022-07-26T03:35:44.691Z,24.57
2022-07-26T03:38:14.470Z,24.57
2022-07-26T03:40:42.678Z,24.50
2022-07-26T03:43:10.888Z,24.63
2022-07-26T03:45:39.125Z,24.61
2022-07-26T03:48:08.060Z,24.67
2022-07-26T03:50:36.295Z,24.40
2022-07-26T03:53:04.822Z,24.65
2022-07-26T03:55:52.008Z,24.70
2022-07-26T03:58:20.330Z,24.68
2022-07-26T04:00:48.613Z,24.52
2022-07-26T04:03:16.950Z,24.67
2022-07-26T04:05:48.568Z,24.67
2022-07-26T04:08:17.783Z,24.65
2022-07-26T04:10:51.423Z,24.69
2022-07-26T04:13:19.791Z,24.63
2022-07-26T04:15:48.209Z,24.51
2022-07-26T04:18:16.622Z,24.62
2022-07-26T04:20:45.239Z,24.66
2022-07-26T04:23:13.676Z,24.63
2022-07-26T04:25:42.610Z,24.66
2022-07-26T04:28:12.999Z,24.64
2022-07-26T04:30:42.180Z,24.60
2022-07-26T04:33:10.799Z,24.12
2022-07-26T04:35:39.200Z,24.66
2022-07-26T04:38:07.451Z,24.65
2022-07-26T04:40:40.758Z,24.71
2022-07-26T04:43:15.372Z,24.81
2022-07-26T04:45:46.680Z,24.45
2022-07-26T04:48:17.703Z,24.67
2022-07-26T04:50:45.980Z,24.67
2022-07-26T04:53:14.619Z,24.85
2022-07-26T04:55:43.550Z,24.59
2022-07-26T04:58:12.142Z,24.69
2022-07-26T05:01:08.610Z,24.09
2022-07-26T05:03:30.412Z,24.88
2022-07-26T05:05:58.659Z,24.89
2022-07-26T05:08:26.954Z,23.00
2022-07-26T05:10:56.078Z,24.84
2022-07-26T05:13:30.640Z,24.75
2022-07-26T05:16:00.134Z,24.94
2022-07-26T05:18:31.666Z,25.06
2022-07-26T05:21:15.340Z,24.31
2022-07-26T05:23:44.279Z,24.88
2022-07-26T05:26:12.875Z,24.85
2022-07-26T05:28:41.135Z,24.61
2022-07-26T05:31:09.518Z,24.84
2022-07-26T05:33:39.246Z,24.97
2022-07-26T05:36:07.946Z,25.01
2022-07-26T05:38:36.425Z,24.96
2022-07-26T05:41:04.763Z,24.90
2022-07-26T05:43:40.750Z,24.61
2022-07-26T05:46:11.578Z,24.80
2022-07-26T05:48:41.559Z,24.77
2022-07-26T05:51:10.168Z,24.75
2022-07-26T05:53:39.390Z,24.66
2022-07-26T05:56:08.422Z,24.43
2022-07-26T05:58:37.497Z,24.53
2022-07-26T06:01:05.825Z,24.47
2022-07-26T06:03:34.279Z,24.44
2022-07-26T06:06:03.841Z,24.56
2022-07-26T06:08:32.091Z,24.59
2022-07-26T06:11:00.281Z,24.51
2022-07-26T06:13:28.499Z,24.47
2022-07-26T06:15:56.798Z,24.47
2022-07-26T06:18:25.391Z,24.48
2022-07-26T06:20:54.058Z,24.44
2022-07-26T06:23:31.901Z,24.40
2022-07-26T06:26:05.176Z,24.37
2022-07-26T06:28:33.603Z,24.52
2022-07-26T06:31:02.018Z,24.16
2022-07-26T06:33:30.300Z,24.51
2022-07-26T06:35:58.553Z,24.59
2022-07-26T06:38:28.372Z,24.59
2022-07-26T06:40:56.548Z,24.64
2022-07-26T06:43:24.802Z,24.63
2022-07-26T06:45:53.611Z,24.46
2022-07-26T06:48:21.869Z,24.56
2022-07-26T06:50:51.600Z,24.52
2022-07-26T06:53:19.973Z,24.58
2022-07-26T06:55:49.498Z,24.44
2022-07-26T06:58:17.979Z,24.50
2022-07-26T07:00:46.266Z,24.74
2022-07-26T07:03:14.605Z,24.81
2022-07-26T07:05:47.930Z,24.99
2022-07-26T07:08:18.446Z,24.82
2022-07-26T07:10:50.973Z,24.93
2022-07-26T07:13:19.575Z,24.94
2022-07-26T07:15:48.013Z,24.92
2022-07-26T07:18:16.343Z,25.00
2022-07-26T07:20:44.535Z,25.21
2022-07-26T07:23:13.434Z,25.16
2022-07-26T07:25:41.688Z,25.32
2022-07-26T07:28:14.637Z,25.31
2022-07-26T07:30:43.331Z,25.26
2022-07-26T07:33:22.893Z,25.30
2022-07-26T07:35:52.102Z,25.26
2022-07-26T07:38:20.298Z,25.05
2022-07-26T07:40:50.754Z,24.93
2022-07-26T07:43:20.407Z,25.13
2022-07-26T07:45:48.655Z,25.16
2022-07-26T07:48:17.252Z,25.15
2022-07-26T07:50:45.750Z,25.03
2022-07-26T07:53:13.972Z,24.98
2022-07-26T07:55:43.999Z,25.02
2022-07-26T07:58:14.839Z,24.99
2022-07-26T08:00:44.871Z,24.94
2022-07-26T08:03:13.388Z,24.96
2022-07-26T08:05:46.465Z,24.94
2022-07-26T08:08:17.768Z,24.77
2022-07-26T08:10:52.061Z,24.87
2022-07-26T08:13:21.473Z,25.08
2022-07-26T08:15:51.779Z,25.09
2022-07-26T08:18:22.297Z,24.74
2022-07-26T08:20:51.349Z,24.65
2022-07-26T08:23:21.005Z,24.79
2022-07-26T08:25:57.118Z,24.78
2022-07-26T08:31:18.452Z,24.80
2022-07-26T08:33:47.151Z,24.89
2022-07-26T08:36:16.470Z,24.97
2022-07-26T08:38:44.956Z,25.08
2022-07-26T08:41:16.839Z,25.14
2022-07-26T08:43:51.762Z,25.22
2022-07-26T08:46:26.385Z,25.03
2022-07-26T08:48:55.454Z,25.14
2022-07-26T08:51:25.943Z,25.40
2022-07-26T08:54:02.315Z,25.53
2022-07-26T08:56:33.441Z,25.69
2022-07-26T08:59:18.758Z,25.84
2022-07-26T09:01:55.108Z,25.84
2022-07-26T09:04:33.900Z,25.96
2022-07-26T09:07:06.852Z,26.08
2022-07-26T09:09:37.258Z,26.10
2022-07-26T09:12:17.580Z,26.07
2022-07-26T09:14:47.719Z,26.15
2022-07-26T09:17:19.566Z,26.22
2022-07-26T09:20:06.498Z,26.12
2022-07-26T09:22:34.788Z,26.46
2022-07-26T09:25:03.113Z,26.61
2022-07-26T09:27:37.333Z,26.67
2022-07-26T09:30:10.174Z,26.75
2022-07-26T09:32:39.874Z,26.84
2022-07-26T09:35:37.008Z,26.45
2022-07-26T09:38:01.500Z,27.02
2022-07-26T09:40:35.970Z,27.22
2022-07-26T09:43:06.848Z,27.30
2022-07-26T09:45:38.493Z,27.32
2022-07-26T09:48:12.767Z,26.95
2022-07-26T09:50:48.553Z,27.38
2022-07-26T09:53:17.488Z,27.39
2022-07-26T09:55:57.140Z,27.32
2022-07-26T09:58:26.072Z,27.26
2022-07-26T10:00:58.959Z,27.24
2022-07-26T10:03:33.229Z,27.27
2022-07-26T10:06:02.550Z,27.31
2022-07-26T10:08:31.723Z,27.34
2022-07-26T10:11:04.636Z,27.01
2022-07-26T10:13:33.159Z,26.49
2022-07-26T10:16:02.168Z,27.29
2022-07-26T10:18:47.595Z,27.31
2022-07-26T10:21:23.709Z,27.49
2022-07-26T10:23:52.880Z,27.28
2022-07-26T10:26:44.623Z,27.70
2022-07-26T10:29:26.185Z,27.77
2022-07-26T10:32:17.465Z,27.80
2022-07-26T10:34:47.709Z,27.76
2022-07-26T10:37:27.875Z,27.80
2022-07-26T10:40:22.868Z,27.78
2022-07-26T10:42:51.145Z,27.47
2022-07-26T10:45:23.511Z,27.87
2022-07-26T10:48:12.051Z,27.78
2022-07-26T10:50:43.332Z,27.70
2022-07-26T10:53:18.199Z,27.78
2022-07-26T10:55:48.446Z,28.10
2022-07-26T10:58:16.983Z,28.31
2022-07-26T11:00:59.806Z,28.32
2022-07-26T11:03:38.886Z,28.33
2022-07-26T11:06:17.289Z,28.14
2022-07-26T11:08:48.522Z,27.86
2022-07-26T11:11:30.921Z,27.93
2022-07-26T11:14:07.748Z,28.19
2022-07-26T11:16:41.160Z,28.19
2022-07-26T11:19:17.408Z,28.31
2022-07-26T11:21:49.328Z,28.34
2022-07-26T11:24:17.591Z,28.18
2022-07-26T11:26:47.466Z,27.87
2022-07-26T11:29:17.440Z,27.66
2022-07-26T11:31:48.256Z,27.89
2022-07-26T11:34:22.246Z,27.94
2022-07-26T11:36:54.446Z,28.39
2022-07-26T11:39:24.256Z,28.72
2022-07-26T11:41:58.100Z,28.99
2022-07-26T11:44:27.532Z,28.94
2022-07-26T11:46:58.077Z,29.12
2022-07-26T11:49:51.958Z,28.91
2022-07-26T11:52:25.135Z,28.84
2022-07-26T11:54:55.721Z,28.79
2022-07-26T11:57:30.333Z,28.64
2022-07-26T12:00:00.218Z,28.35
2022-07-26T12:02:30.352Z,28.85
2022-07-26T12:05:15.889Z,29.04
2022-07-26T12:08:03.173Z,29.33
2022-07-26T12:10:31.634Z,29.65
2022-07-26T12:13:13.831Z,29.09
2022-07-26T12:15:46.633Z,29.44
2022-07-26T12:18:24.624Z,29.18
2022-07-26T12:21:04.652Z,29.64
2022-07-26T12:23:44.179Z,29.59
2022-07-26T12:26:23.458Z,29.72
2022-07-26T12:28:52.302Z,29.94
2022-07-26T12:31:25.405Z,30.07
2022-07-26T12:33:53.883Z,29.47
2022-07-26T12:36:28.171Z,29.34
2022-07-26T12:38:59.864Z,28.95
2022-07-26T12:41:37.085Z,28.66
2022-07-26T12:44:06.187Z,28.57
2022-07-26T12:46:35.611Z,28.72
2022-07-26T12:49:05.268Z,29.01
2022-07-26T12:51:33.731Z,29.06
2022-07-26T12:54:12.876Z,29.11
2022-07-26T12:56:41.384Z,29.35
2022-07-26T12:59:11.133Z,28.99
2022-07-26T13:01:46.119Z,28.90
2022-07-26T13:04:15.239Z,28.69
2022-07-26T13:06:43.778Z,28.77
2022-07-26T13:09:16.704Z,28.82
2022-07-26T13:11:45.312Z,29.22
2022-07-26T13:14:14.399Z,29.60
2022-07-26T13:16:42.930Z,28.94
2022-07-26T13:19:11.292Z,29.25
2022-07-26T13:21:39.488Z,29.41
2022-07-26T13:24:08.796Z,29.31
2022-07-26T13:26:39.173Z,29.33
2022-07-26T13:29:09.557Z,29.60
2022-07-26T13:31:38.216Z,30.03
2022-07-26T13:34:06.699Z,30.39
2022-07-26T13:36:35.282Z,30.71
2022-07-26T13:39:03.644Z,31.07
2022-07-26T13:41:31.830Z,30.91
2022-07-26T13:44:06.105Z,31.26
2022-07-26T13:46:34.676Z,31.82
2022-07-26T13:49:04.459Z,32.05
2022-07-26T13:51:51.834Z,32.26
2022-07-26T13:54:21.606Z,32.35
2022-07-26T13:56:50.260Z,32.79
2022-07-26T13:59:20.475Z,32.87
2022-07-26T14:01:49.052Z,32.88
2022-07-26T14:04:17.481Z,32.99
2022-07-26T14:06:46.230Z,32.18
2022-07-26T14:09:15.032Z,31.48
2022-07-26T14:11:44.253Z,30.87
2022-07-26T14:14:13.205Z,30.58
2022-07-26T14:16:43.265Z,30.42
2022-07-26T14:19:16.256Z,30.23
2022-07-26T14:21:58.940Z,31.57
2022-07-26T14:24:28.180Z,32.62
2022-07-26T14:26:59.301Z,33.43
2022-07-26T14:29:28.434Z,34.20
2022-07-26T14:31:58.590Z,34.62
2022-07-26T14:34:26.892Z,34.40
2022-07-26T14:36:55.237Z,34.56
2022-07-26T14:39:23.483Z,35.08
2022-07-26T14:41:51.957Z,34.96
2022-07-26T14:44:20.163Z,34.98
2022-07-26T14:46:48.807Z,34.57
2022-07-26T14:49:18.703Z,34.07
2022-07-26T14:51:47.996Z,34.20
2022-07-26T14:54:18.167Z,34.33
2022-07-26T14:56:46.353Z,34.37
2022-07-26T14:59:14.606Z,34.57
2022-07-26T15:01:43.358Z,34.60
2022-07-26T15:04:11.983Z,35.04
2022-07-26T15:06:42.162Z,34.62
2022-07-26T15:09:10.308Z,34.42
2022-07-26T15:11:38.620Z,34.45
2022-07-26T15:14:06.901Z,34.27
2022-07-26T15:16:35.259Z,33.49
2022-07-26T15:19:03.495Z,33.13
2022-07-26T15:21:31.764Z,33.19
2022-07-26T15:24:01.402Z,33.13
2022-07-26T15:26:30.034Z,33.03
2022-07-26T15:28:58.273Z,32.94
2022-07-26T15:31:37.223Z,32.86
2022-07-26T15:34:07.906Z,33.65
2022-07-26T15:36:36.237Z,33.39
2022-07-26T15:39:16.760Z,32.15
2022-07-26T15:41:47.415Z,31.76
2022-07-26T15:44:17.780Z,31.28
2022-07-26T15:46:47.997Z,30.05
2022-07-26T15:49:17.914Z,30.71
2022-07-26T15:51:46.599Z,30.30
2022-07-26T15:54:16.992Z,30.51
2022-07-26T15:56:45.663Z,30.31
2022-07-26T15:59:14.001Z,30.28
2022-07-26T16:01:42.598Z,30.37
2022-07-26T16:04:11.115Z,30.39
2022-07-26T16:06:40.012Z,30.53
2022-07-26T16:09:17.638Z,30.61
2022-07-26T16:11:49.596Z,31.35
2022-07-26T16:14:18.643Z,32.01
2022-07-26T16:16:47.504Z,33.52
2022-07-26T16:19:16.088Z,33.99
2022-07-26T16:21:44.594Z,33.71
2022-07-26T16:24:12.918Z,33.10
2022-07-26T16:26:42.614Z,32.33
2022-07-26T16:29:12.840Z,31.48
2022-07-26T16:31:42.380Z,30.89
2022-07-26T16:34:11.466Z,30.52
2022-07-26T16:36:40.061Z,30.03
2022-07-26T16:39:08.950Z,29.84
2022-07-26T16:41:37.899Z,29.52
2022-07-26T16:44:06.844Z,29.28
2022-07-26T16:46:36.561Z,29.17
2022-07-26T16:49:05.456Z,28.57
2022-07-26T16:51:33.767Z,28.91
2022-07-26T16:54:02.035Z,28.80
2022-07-26T16:56:30.290Z,28.66
2022-07-26T16:58:58.528Z,28.66
2022-07-26T17:01:26.813Z,28.27
2022-07-26T17:03:56.579Z,28.29
2022-07-26T17:06:24.889Z,28.19
2022-07-26T17:08:53.126Z,27.93
2022-07-26T17:11:21.678Z,27.57
2022-07-26T17:13:50.071Z,27.13
2022-07-26T17:16:24.483Z,26.83
2022-07-26T17:18:53.375Z,26.64
2022-07-26T17:21:23.505Z,26.36
2022-07-26T17:23:51.839Z,26.16
2022-07-26T17:26:20.750Z,25.38
2022-07-26T17:28:49.016Z,25.59
2022-07-26T17:31:17.762Z,25.58
2022-07-26T17:33:46.066Z,25.49
2022-07-26T17:36:24.279Z,25.34
2022-07-26T17:38:52.838Z,25.18
2022-07-26T17:41:23.747Z,25.35
2022-07-26T17:44:03.073Z,25.41
2022-07-26T17:46:32.818Z,25.44
2022-07-26T17:49:01.592Z,25.11
2022-07-26T17:51:31.801Z,25.52
2022-07-26T17:54:00.313Z,25.37
2022-07-26T17:56:28.944Z,25.10
2022-07-26T17:58:58.120Z,24.81
2022-07-26T18:01:26.628Z,24.52
2022-07-26T18:03:55.195Z,24.45
2022-07-26T18:06:23.586Z,24.38
2022-07-26T18:08:53.196Z,23.73
2022-07-26T18:11:21.455Z,23.96
2022-07-26T18:13:50.107Z,24.11
2022-07-26T18:16:19.071Z,23.86
2022-07-26T18:18:47.407Z,24.29
2022-07-26T18:21:15.718Z,24.20
2022-07-26T18:24:06.644Z,23.99
2022-07-26T18:26:33.654Z,24.04
2022-07-26T18:29:01.929Z,24.08
2022-07-26T18:31:30.285Z,24.18
2022-07-26T18:34:00.804Z,24.06
2022-07-26T18:36:32.602Z,24.01
2022-07-26T18:39:01.198Z,23.93
2022-07-26T18:41:30.621Z,23.83
2022-07-26T18:44:02.382Z,23.88
2022-07-26T18:46:30.685Z,23.87
2022-07-26T18:48:59.406Z,23.87
2022-07-26T18:51:27.979Z,23.84
2022-07-26T18:53:56.315Z,23.62
2022-07-26T18:56:24.929Z,23.66
2022-07-26T18:58:53.146Z,23.73
2022-07-26T19:01:22.792Z,23.62
2022-07-26T19:03:50.988Z,23.58
2022-07-26T19:06:19.206Z,23.57
2022-07-26T19:08:47.366Z,22.82
2022-07-26T19:11:15.638Z,23.39
2022-07-26T19:13:43.856Z,23.36
2022-07-26T19:16:12.091Z,23.42
2022-07-26T19:18:43.944Z,23.34
2022-07-26T19:21:16.735Z,23.43
2022-07-26T19:23:44.942Z,23.41
2022-07-26T19:26:13.092Z,23.48
2022-07-26T19:28:41.272Z,23.06
2022-07-26T19:31:09.492Z,23.43
2022-07-26T19:33:37.743Z,23.36
2022-07-26T19:36:07.915Z,23.33
2022-07-26T19:38:36.091Z,23.34
2022-07-26T19:41:04.330Z,23.55
2022-07-26T19:43:32.498Z,23.56
2022-07-26T19:46:02.217Z,23.57
2022-07-26T19:48:30.508Z,23.52
2022-07-26T19:50:58.801Z,23.47
2022-07-26T19:53:28.350Z,22.37
2022-07-26T19:55:56.546Z,23.28
2022-07-26T19:58:26.283Z,23.07
2022-07-26T20:00:55.366Z,23.02
2022-07-26T20:03:23.616Z,22.92
2022-07-26T20:05:53.838Z,22.92
2022-07-26T20:08:22.198Z,22.88
2022-07-26T20:10:52.203Z,22.96
2022-07-26T20:13:20.838Z,22.32
2022-07-26T20:15:54.236Z,22.74
2022-07-26T20:18:25.264Z,22.55
2022-07-26T20:20:56.294Z,22.55
2022-07-26T20:23:24.991Z,22.55
2022-07-26T20:25:54.805Z,21.92
2022-07-26T20:28:43.852Z,22.32
2022-07-26T20:31:12.912Z,22.66
2022-07-26T20:33:41.477Z,22.74
2022-07-26T20:36:10.036Z,22.65
2022-07-26T20:38:38.219Z,22.32
2022-07-26T20:41:08.235Z,21.83
2022-07-26T20:43:36.831Z,22.44
2022-07-26T20:46:05.280Z,22.32
2022-07-26T20:48:33.885Z,22.26
2022-07-26T20:51:04.149Z,22.24
2022-07-26T20:53:32.490Z,22.06
2022-07-26T20:56:00.819Z,22.13
2022-07-26T20:58:33.530Z,22.05
2022-07-26T21:01:02.039Z,22.03
2022-07-26T21:03:30.313Z,21.70
2022-07-26T21:05:58.605Z,21.98
2022-07-26T21:08:26.956Z,21.71
2022-07-26T21:10:55.354Z,21.31
2022-07-26T21:13:24.539Z,21.74
2022-07-26T21:15:54.583Z,21.97
2022-07-26T21:18:23.060Z,21.79
2022-07-26T21:20:51.288Z,21.96
2022-07-26T21:23:20.224Z,21.90
2022-07-26T21:25:49.144Z,21.55
2022-07-26T21:28:26.722Z,21.94
2022-07-26T21:30:56.484Z,21.86
2022-07-26T21:33:25.640Z,21.51
2022-07-26T21:35:53.951Z,21.70
2022-07-26T21:38:22.315Z,20.91
2022-07-26T21:40:51.632Z,21.32
2022-07-26T21:43:21.013Z,21.43
2022-07-26T21:45:49.331Z,21.55
2022-07-26T21:50:47.010Z,21.73
2022-07-26T21:53:15.246Z,20.40
2022-07-26T21:55:43.442Z,21.55
2022-07-26T21:58:11.797Z,21.33
2022-07-26T22:00:40.860Z,21.43
2022-07-26T22:03:09.116Z,21.40
2022-07-26T22:05:42.676Z,20.05
2022-07-26T22:08:12.675Z,21.51
2022-07-26T22:10:44.390Z,21.52
2022-07-26T22:13:13.683Z,21.45
2022-07-26T22:15:43.087Z,21.46
2022-07-26T22:18:11.766Z,21.49
2022-07-26T22:20:42.157Z,21.45
2022-07-26T22:23:12.193Z,21.38
2022-07-26T22:25:40.976Z,21.17
2022-07-26T22:28:10.692Z,21.23
2022-07-26T22:30:39.575Z,21.10
2022-07-26T22:33:08.595Z,21.37
2022-07-26T22:35:37.109Z,21.42
2022-07-26T22:38:10.096Z,21.40
2022-07-26T22:40:39.375Z,19.09
2022-07-26T22:43:08.366Z,21.01
2022-07-26T22:45:37.156Z,21.12
2022-07-26T22:48:06.510Z,21.00
2022-07-26T22:50:35.267Z,20.93
2022-07-26T22:53:03.553Z,21.13
2022-07-26T22:55:33.410Z,20.84
2022-07-26T22:58:02.016Z,21.25
2022-07-26T23:00:30.474Z,21.04
2022-07-26T23:02:58.676Z,21.23
2022-07-26T23:05:45.776Z,21.28
2022-07-26T23:08:44.322Z,21.33
2022-07-26T23:11:05.916Z,21.18
2022-07-26T23:13:34.205Z,21.27
2022-07-26T23:16:02.458Z,21.13
2022-07-26T23:18:31.829Z,21.06
2022-07-26T23:21:00.340Z,20.77
2022-07-26T23:23:29.528Z,20.98
2022-07-26T23:25:59.644Z,21.29
2022-07-26T23:28:36.758Z,20.73
2022-07-26T23:31:11.158Z,21.39
2022-07-26T23:33:50.810Z,21.38
2022-07-26T23:36:22.419Z,21.42
2022-07-26T23:38:50.626Z,21.24
2022-07-26T23:41:19.214Z,21.39
2022-07-26T23:43:48.950Z,21.40
2022-07-26T23:46:17.450Z,20.92
2022-07-26T23:48:45.818Z,21.37
2022-07-26T23:51:14.638Z,21.36
2022-07-26T23:53:43.066Z,21.24
2022-07-26T23:56:11.334Z,21.20
2022-07-26T23:58:39.893Z,21.06
